createdAt,value
2022-12-12T06:16:55.678Z,315.00
2022-12-12T06:26:55.837Z,315.00
2022-12-12T06:36:55.681Z,315.00
2022-12-12T06:46:55.762Z,315.00
2022-12-12T06:56:55.792Z,315.00
2022-12-12T07:06:55.757Z,315.00
2022-12-12T07:16:55.813Z,315.00
2022-12-12T07:26:55.774Z,315.00
2022-12-12T07:37:02.339Z,315.00
2022-12-12T07:46:55.702Z,315.00
2022-12-12T07:56:55.896Z,315.00
2022-12-12T08:06:59.777Z,315.00
2022-12-12T08:16:55.910Z,315.00
2022-12-12T08:26:55.833Z,315.00
2022-12-12T08:36:55.843Z,315.00
2022-12-12T08:46:55.906Z,315.00
2022-12-12T08:56:55.841Z,315.00
2022-12-12T09:06:55.761Z,315.00
2022-12-12T09:16:55.881Z,315.00
2022-12-12T09:26:55.743Z,315.00
2022-12-12T09:36:55.742Z,315.00
2022-12-12T09:46:55.792Z,315.00
2022-12-12T09:56:55.970Z,315.00
2022-12-12T10:06:56.081Z,315.00
2022-12-12T10:16:58.193Z,315.00
2022-12-12T10:26:56.150Z,315.00
2022-12-12T10:36:56.656Z,315.00
2022-12-12T10:46:56.258Z,315.00
2022-12-12T10:56:56.135Z,315.00
2022-12-12T11:06:56.257Z,315.00
2022-12-12T11:16:56.083Z,315.00
2022-12-12T11:26:56.199Z,315.00
2022-12-12T11:36:56.199Z,315.00
2022-12-12T11:46:56.302Z,315.00
2022-12-12T11:56:56.164Z,309.49
2022-12-12T12:06:56.158Z,180.00
2022-12-12T12:16:56.289Z,180.00
2022-12-12T12:26:56.151Z,180.00
2022-12-12T12:36:56.261Z,180.00
2022-12-12T12:46:56.226Z,179.57
2022-12-12T12:56:56.208Z,180.00
2022-12-12T13:06:56.187Z,180.00
2022-12-12T13:16:56.309Z,173.31
2022-12-12T13:26:56.401Z,144.20
2022-12-12T13:36:56.379Z,141.07
2022-12-12T13:46:56.260Z,150.93
2022-12-12T13:56:56.290Z,147.22
2022-12-12T14:06:56.279Z,171.83
2022-12-12T14:16:56.298Z,180.00
2022-12-12T14:26:56.302Z,180.00
2022-12-12T14:36:56.524Z,180.00
2022-12-12T14:46:56.362Z,180.00
2022-12-12T14:56:56.289Z,180.00
2022-12-12T15:06:56.362Z,180.00
2022-12-12T15:16:56.511Z,180.00
2022-12-12T15:26:56.491Z,180.00
2022-12-12T15:36:56.429Z,174.65
2022-12-12T15:46:56.426Z,90.00
2022-12-12T15:56:56.404Z,90.00
2022-12-12T16:06:56.411Z,90.00
2022-12-12T16:16:56.240Z,98.24
2022-12-12T16:26:56.442Z,180.00
2022-12-12T16:36:56.521Z,180.00
2022-12-12T16:46:56.389Z,180.00
2022-12-12T16:56:56.448Z,180.00
2022-12-12T17:06:56.401Z,180.00
2022-12-12T17:16:56.481Z,180.00
2022-12-12T17:26:56.545Z,180.00
2022-12-12T17:36:56.426Z,180.00
2022-12-12T17:46:56.435Z,180.00
2022-12-12T17:56:56.413Z,180.00
2022-12-12T18:06:56.514Z,176.77
2022-12-12T18:16:56.581Z,135.00
2022-12-12T18:26:56.482Z,135.00
2022-12-12T18:36:56.555Z,135.00
2022-12-12T18:46:56.495Z,135.00
2022-12-12T18:56:56.491Z,110.01
2022-12-12T19:06:56.509Z,90.00
2022-12-12T19:16:56.555Z,90.00
